»·PEaware :: SWA6262 KSAN-KPHX

SWA6262 :: KSAN-KPHX

FLIGHT INFORMATION

Flight Status: Arrived
Operator:
Southwest Airlines
More flights by this operator :: More flights under this callsign
Pilot: Judson K. (15650)
Aircraft: BOEING 737-300
(B733)
More flights by this aircraft type
Origin: KSAN San Diego Intl-Lindbergh
United States
Destination: KPHX Phoenix Sky Harbor Intl
United States
More flights between these airports :: More routes between these airports
Route: +BRDR7 IPL J18 BZA HOGGZ HYDRR1
File this flight plan on PilotEdge
Remarks: PBN / A1B3B4B5D3D4 DOF / 171230 REG / N372SB EET / KZAB0025 OPR / SWA PER / C RMK / TCAS SIMBRIEF
Altitude:
(Current/Filed)
33,000ft
Speed:
(Current/Filed)
423kts
Departed: 29-Dec-17 10:18 PM
Arrived: 29-Dec-17 11:12 PM
Distance/Time
Traveled:
264nm/0:53
Distance/Time
To Go:
Arrived

Flight Plot

Page will automatically refresh every two minutes.


Map Options




Map Legend


Flown Route
Filed Route
Departure Airport
Arrival Airport
Navaid (VOR, NDB)
Fix

Horizontal Profiles

Position Reports

Time Latitude Longitude Heading Altitude Ground
Speed
29-Dec-17 22:03 32.733328 -117.199008 114 17ft 0kts
29-Dec-17 22:04 32.733328 -117.199008 114 17ft 0kts
29-Dec-17 22:05 32.733328 -117.199008 114 17ft 0kts
29-Dec-17 22:06 32.733328 -117.199008 114 17ft 0kts
29-Dec-17 22:07 32.733328 -117.199008 114 17ft 0kts
29-Dec-17 22:08 32.733328 -117.199008 114 17ft 0kts
29-Dec-17 22:09 32.733328 -117.199008 114 17ft 0kts
29-Dec-17 22:10 32.733328 -117.199008 114 17ft 0kts
29-Dec-17 22:11 32.733328 -117.199008 114 17ft 0kts
29-Dec-17 22:12 32.733328 -117.199008 114 17ft 0kts
29-Dec-17 22:13 32.733328 -117.199008 114 17ft 0kts
29-Dec-17 22:14 32.733521 -117.199521 114 17ft 0kts
29-Dec-17 22:15 32.733521 -117.199521 114 17ft 0kts
29-Dec-17 22:16 32.733521 -117.199521 114 17ft 0kts
29-Dec-17 22:17 32.734024 -117.199611 354 17ft 5kts
29-Dec-17 22:18 32.734430 -117.199552 11 17ft 0kts
29-Dec-17 22:19 32.733985 -117.195637 106 19ft 18kts
29-Dec-17 22:20 32.732437 -117.189314 105 18ft 21kts
29-Dec-17 22:21 32.730618 -117.181855 106 17ft 26kts
29-Dec-17 22:22 32.729522 -117.176698 72 22ft 0kts
29-Dec-17 22:23 32.730265 -117.176170 290 23ft 15kts
29-Dec-17 22:24 32.733813 -117.191155 288 45ft 173kts
29-Dec-17 22:25 32.750514 -117.251832 288 2950ft 189kts
29-Dec-17 22:26 32.768624 -117.319351 265 4565ft 262kts
29-Dec-17 22:27 32.714200 -117.346010 136 7479ft 272kts
29-Dec-17 22:28 32.666590 -117.273270 128 10327ft 289kts
29-Dec-17 22:29 32.620603 -117.199985 121 12992ft 297kts
29-Dec-17 22:30 32.615724 -117.186970 106 13353ft 301kts
29-Dec-17 22:31 32.612730 -117.096286 92 14325ft 354kts
29-Dec-17 22:32 32.610444 -116.978982 89 15011ft 358kts
29-Dec-17 22:33 32.621679 -116.861629 85 15433ft 362kts
29-Dec-17 22:34 32.633472 -116.742571 85 18014ft 367kts
29-Dec-17 22:35 32.645362 -116.620971 85 20043ft 382kts
29-Dec-17 22:36 32.657790 -116.493280 85 21896ft 397kts
29-Dec-17 22:37 32.670513 -116.361182 84 23630ft 410kts
29-Dec-17 22:38 32.683276 -116.227008 85 25194ft 423kts
29-Dec-17 22:39 32.696503 -116.086444 85 26648ft 435kts
29-Dec-17 22:40 32.709903 -115.942283 84 28001ft 446kts
29-Dec-17 22:41 32.723347 -115.795962 84 29728ft 444kts
29-Dec-17 22:42 32.736480 -115.651124 84 31185ft 444kts
29-Dec-17 22:43 32.749294 -115.505380 87 32487ft 443kts
29-Dec-17 22:44 32.752189 -115.359324 88 33233ft 444kts
29-Dec-17 22:45 32.755589 -115.215274 89 33122ft 439kts
29-Dec-17 22:46 32.758865 -115.070165 89 33133ft 441kts
29-Dec-17 22:47 32.761142 -114.954551 89 33131ft 440kts
29-Dec-17 22:48 32.764018 -114.809413 89 32542ft 441kts
29-Dec-17 22:49 32.766806 -114.665434 89 30975ft 439kts
29-Dec-17 22:50 32.768964 -114.520788 89 29402ft 441kts
29-Dec-17 22:51 32.770979 -114.375390 89 27829ft 443kts
29-Dec-17 22:52 32.772844 -114.231896 90 26226ft 441kts
29-Dec-17 22:53 32.774556 -114.088148 91 25209ft 434kts
29-Dec-17 22:54 32.788157 -113.944758 84 25241ft 438kts
29-Dec-17 22:55 32.803935 -113.801776 84 25260ft 433kts
29-Dec-17 22:56 32.827398 -113.664785 56 25231ft 430kts
29-Dec-17 22:57 32.909379 -113.562249 48 25229ft 407kts
29-Dec-17 22:58 32.986334 -113.459024 49 24565ft 431kts
29-Dec-17 22:59 33.049165 -113.373959 49 23359ft 420kts
29-Dec-17 23:00 33.123470 -113.273433 50 21755ft 407kts
29-Dec-17 23:01 33.196801 -113.174320 50 19760ft 394kts
29-Dec-17 23:02 33.246045 -113.107375 51 18116ft 388kts
29-Dec-17 23:03 33.276004 -112.999148 91 15803ft 352kts
29-Dec-17 23:04 33.278622 -112.886225 90 13733ft 326kts
29-Dec-17 23:05 33.293098 -112.786529 66 12619ft 308kts
29-Dec-17 23:06 33.318527 -112.719107 66 11354ft 292kts
29-Dec-17 23:07 33.349863 -112.636715 66 10973ft 246kts
29-Dec-17 23:08 33.381155 -112.554684 65 9738ft 281kts
29-Dec-17 23:09 33.412834 -112.469022 66 7562ft 283kts
29-Dec-17 23:10 33.428377 -112.384734 89 6505ft 246kts
29-Dec-17 23:11 33.428391 -112.308883 90 5946ft 228kts
29-Dec-17 23:12 33.435475 -112.240189 80 5573ft 204kts
29-Dec-17 23:13 33.441614 -112.179837 95 4292ft 174kts
29-Dec-17 23:14 33.440762 -112.130198 87 3336ft 137kts
29-Dec-17 23:15 33.441095 -112.085121 90 2136ft 136kts
29-Dec-17 23:16 33.440916 -112.040972 89 1386ft 134kts
29-Dec-17 23:17 33.440816 -112.006433 90 1129ft 41kts
29-Dec-17 23:18 33.440248 -112.004534 136 1129ft 2kts
29-Dec-17 23:19 33.438947 -112.000955 131 1129ft 16kts
29-Dec-17 23:20 33.437945 -111.999885 109 1129ft 0kts
29-Dec-17 23:21 33.437945 -111.999885 109 1129ft 0kts
29-Dec-17 23:22 33.437945 -111.999885 109 1129ft 0kts

Navigation Log

Ident Type
Flight plan parsing failed, navigation log unavailable